Diamond, Oregon
Current Conditions -  °F | °C
As of 4:53 AM on Tuesday 21 Oct 2014 (Local Time) from KBNO Reporting Station
Clear Clear  
Wind Chill: 32°   Ceiling: Unl
Heat Index: 39°   Visibility: 10mi
Dew Point: 36°   Wind: 12mph
Humidity: 89%   Direction: 220°SW
Pressure: 29.96"   Gusts: NA
Location:  43.01°N, 118.66°W
Report Text: KBNO 211153Z AUTO 22010KT 10SM CLR 04/02 A2996 RMK AO2 SLP128 60000 70008 T00390022 10072 20017 51016
Loading
Personal Weather Stations






























Interactive Weather Map
Tropical Storm Tracking
New forecast layout! Learn more

10-Day Weather Forecast

Advertisements
Track Severe Weather on mobile